Weston, Missouri
Current Conditions -  °F | °C
As of 6:07 AM on Sunday 25 Jan 2015 (Local Time) from KMCI Reporting Station
Overcast Overcast  
Wind Chill: 34°   Ceiling: 2000
Heat Index: 42°   Visibility: 10mi
Dew Point: 36°   Wind: 18mph
Humidity: 79%   Direction: 330°NNW
Pressure: 29.65"   Gusts: 28mph
Location:  39.41°N, 94.9°W
Report Text: KMCI 251207Z 33016G24KT 10SM BKN020 OVC030 06/02 A2965 RMK AO2 T00560022
Loading
Personal Weather Stations






























Interactive Weather Map New forecast layout! Learn more

10-Day Weather Forecast

Advertisements
Track Severe Weather on mobile